createdAt,value
2018-03-16T00:02:09.785Z,46.90
2018-03-16T00:04:36.379Z,54.13
2018-03-16T00:07:02.984Z,52.20
2018-03-16T00:09:29.586Z,51.75
2018-03-16T00:11:56.190Z,49.72
2018-03-16T00:14:22.791Z,50.35
2018-03-16T00:16:49.398Z,51.47
2018-03-16T00:19:16.022Z,56.75
2018-03-16T00:21:42.630Z,54.83
2018-03-16T00:24:09.287Z,59.47
2018-03-16T00:26:35.875Z,57.75
2018-03-16T00:29:02.487Z,47.30
2018-03-16T00:31:29.098Z,58.17
2018-03-16T00:33:55.715Z,57.72
2018-03-16T00:36:22.313Z,55.55
2018-03-16T00:38:48.922Z,53.90
2018-03-16T00:41:15.533Z,55.30
2018-03-16T00:43:42.143Z,57.45
2018-03-16T00:46:08.746Z,54.20
2018-03-16T00:48:35.351Z,57.95
2018-03-16T00:51:01.967Z,54.33
2018-03-16T00:53:28.564Z,54.88
2018-03-16T00:55:55.171Z,52.85
2018-03-16T00:58:21.787Z,51.08
2018-03-16T01:00:48.390Z,51.58
2018-03-16T01:03:14.986Z,47.17
2018-03-16T01:05:41.595Z,55.95
2018-03-16T01:08:08.187Z,51.75
2018-03-16T01:10:34.806Z,63.22
2018-03-16T01:13:01.414Z,51.92
2018-03-16T01:15:28.036Z,52.40
2018-03-16T01:17:54.635Z,53.75
2018-03-16T01:20:21.263Z,47.92
2018-03-16T01:22:47.875Z,46.60
2018-03-16T01:25:14.494Z,55.17
2018-03-16T01:27:41.111Z,50.25
2018-03-16T01:30:07.710Z,50.35
2018-03-16T01:32:34.315Z,47.50
2018-03-16T01:35:00.919Z,57.42
2018-03-16T01:37:27.537Z,49.65
2018-03-16T01:39:54.226Z,50.10
2018-03-16T01:42:20.812Z,47.50
2018-03-16T01:44:47.407Z,55.83
2018-03-16T01:47:14.027Z,54.03
2018-03-16T01:49:40.634Z,49.28
2018-03-16T01:52:07.235Z,53.30
2018-03-16T01:54:33.895Z,60.90
2018-03-16T01:57:00.483Z,57.47
2018-03-16T01:59:27.078Z,57.17
2018-03-16T02:01:53.683Z,52.70
2018-03-16T02:04:20.290Z,59.38
2018-03-16T02:06:46.903Z,57.62
2018-03-16T02:09:13.490Z,55.40
2018-03-16T02:11:40.108Z,59.00
2018-03-16T02:14:06.715Z,52.08
2018-03-16T02:16:33.323Z,57.17
2018-03-16T02:18:59.922Z,58.87
2018-03-16T02:21:26.539Z,59.20
2018-03-16T02:23:53.145Z,55.12
2018-03-16T02:26:19.742Z,62.00
2018-03-16T02:28:46.372Z,53.97
2018-03-16T02:31:12.972Z,64.53
2018-03-16T02:33:39.587Z,61.72
2018-03-16T02:36:06.196Z,58.08
2018-03-16T02:38:32.795Z,57.00
2018-03-16T02:40:59.407Z,64.35
2018-03-16T02:43:25.999Z,63.05
2018-03-16T02:45:52.610Z,60.60
2018-03-16T02:48:19.213Z,51.17
2018-03-16T02:50:45.810Z,62.55
2018-03-16T02:53:12.413Z,71.95
2018-03-16T02:55:39.015Z,69.90
2018-03-16T02:58:05.602Z,60.28
2018-03-16T03:00:32.367Z,58.63
2018-03-16T03:02:58.956Z,63.25
2018-03-16T03:05:25.557Z,63.42
2018-03-16T03:07:52.164Z,61.25
2018-03-16T03:10:18.751Z,62.75
2018-03-16T03:12:45.367Z,64.03
2018-03-16T03:15:11.965Z,57.30
2018-03-16T03:17:38.560Z,61.20
2018-03-16T03:20:05.171Z,70.55
2018-03-16T03:22:31.782Z,63.60
2018-03-16T03:24:58.410Z,65.05
2018-03-16T03:27:25.022Z,65.50
2018-03-16T03:29:51.627Z,60.97
2018-03-16T03:32:18.226Z,72.57
2018-03-16T03:34:44.827Z,66.60
2018-03-16T03:37:11.426Z,62.33
2018-03-16T03:39:38.027Z,62.88
2018-03-16T03:42:04.622Z,60.83
2018-03-16T03:44:31.340Z,69.45
2018-03-16T03:46:57.939Z,63.05
2018-03-16T03:49:24.545Z,68.00
2018-03-16T03:51:51.150Z,55.03
2018-03-16T03:54:17.743Z,62.42
2018-03-16T03:56:44.354Z,58.05
2018-03-16T03:59:10.958Z,69.53
2018-03-16T04:01:37.579Z,73.30
2018-03-16T04:04:04.174Z,65.00
2018-03-16T04:06:30.786Z,72.78
2018-03-16T04:08:57.402Z,68.43
2018-03-16T04:11:23.999Z,70.22
2018-03-16T04:13:50.610Z,64.12
2018-03-16T04:16:17.222Z,71.72
2018-03-16T04:18:43.846Z,60.78
2018-03-16T04:21:10.498Z,77.43
2018-03-16T04:23:37.087Z,73.72
2018-03-16T04:26:03.696Z,64.43
2018-03-16T04:28:30.295Z,63.97
2018-03-16T04:30:56.894Z,67.12
2018-03-16T04:33:23.498Z,67.57
2018-03-16T04:35:50.095Z,72.18
2018-03-16T04:38:16.696Z,70.72
2018-03-16T04:40:43.308Z,74.82
2018-03-16T04:43:09.908Z,77.25
2018-03-16T04:45:36.515Z,70.45
2018-03-16T04:48:03.186Z,77.72
2018-03-16T04:50:29.766Z,74.43
2018-03-16T04:52:56.379Z,65.97
2018-03-16T04:55:22.987Z,71.93
2018-03-16T04:57:49.611Z,72.50
2018-03-16T05:00:16.210Z,59.83
2018-03-16T05:02:42.810Z,67.72
2018-03-16T05:05:09.419Z,69.45
2018-03-16T05:07:36.006Z,70.68
2018-03-16T05:10:02.639Z,79.43
2018-03-16T05:12:29.242Z,67.12
2018-03-16T05:14:55.864Z,60.15
2018-03-16T05:17:22.446Z,74.95
2018-03-16T05:19:49.059Z,77.95
2018-03-16T05:22:15.666Z,76.70
2018-03-16T05:24:42.259Z,73.82
2018-03-16T05:27:08.866Z,67.87
2018-03-16T05:29:35.490Z,70.10
2018-03-16T05:32:02.090Z,73.62
2018-03-16T05:34:28.704Z,67.82
2018-03-16T05:36:55.310Z,74.20
2018-03-16T05:39:21.941Z,76.35
2018-03-16T05:41:48.550Z,64.10
2018-03-16T05:44:15.171Z,63.45
2018-03-16T05:46:41.783Z,71.60
2018-03-16T05:49:08.452Z,55.03
2018-03-16T05:51:35.024Z,66.00
2018-03-16T05:54:01.641Z,70.60
2018-03-16T05:56:28.230Z,64.47
2018-03-16T05:58:54.840Z,62.95
2018-03-16T06:01:21.437Z,64.35
2018-03-16T06:03:48.039Z,67.20
2018-03-16T06:06:14.638Z,66.25
2018-03-16T06:08:41.231Z,65.60
2018-03-16T06:11:07.848Z,55.80
2018-03-16T06:13:34.483Z,59.10
2018-03-16T06:16:01.082Z,62.53
2018-03-16T06:18:27.673Z,58.00
2018-03-16T06:20:54.275Z,64.97
2018-03-16T06:23:20.879Z,53.35
2018-03-16T06:25:47.483Z,60.45
2018-03-16T06:28:14.080Z,61.30
2018-03-16T06:30:40.698Z,59.65
2018-03-16T06:33:07.288Z,60.90
2018-03-16T06:35:33.907Z,59.33
2018-03-16T06:38:00.511Z,55.12
2018-03-16T06:40:27.116Z,58.45
2018-03-16T06:42:53.719Z,60.53
2018-03-16T06:45:20.317Z,55.25
2018-03-16T06:47:46.906Z,56.40
2018-03-16T06:50:13.524Z,56.50
2018-03-16T06:52:40.233Z,52.60
2018-03-16T06:55:06.828Z,46.95
2018-03-16T06:57:33.430Z,45.80
2018-03-16T07:00:00.075Z,43.33
2018-03-16T07:02:26.671Z,47.62
2018-03-16T07:04:53.276Z,47.22
2018-03-16T07:07:19.865Z,52.28
2018-03-16T07:09:46.485Z,50.50
2018-03-16T07:12:13.136Z,44.53
2018-03-16T07:14:39.723Z,41.58
2018-03-16T07:17:06.326Z,46.30
2018-03-16T07:19:32.963Z,39.20
2018-03-16T07:21:59.607Z,38.95
2018-03-16T07:24:26.199Z,41.70
2018-03-16T07:26:52.815Z,34.10
2018-03-16T07:29:19.402Z,34.97
2018-03-16T07:31:46.018Z,37.90
2018-03-16T07:34:12.624Z,38.80
2018-03-16T07:36:39.252Z,34.65
2018-03-16T07:39:05.850Z,33.35
2018-03-16T07:41:32.466Z,34.90
2018-03-16T07:43:59.638Z,50.53
2018-03-16T07:46:26.235Z,56.25
2018-03-16T07:48:52.835Z,36.05
2018-03-16T07:51:19.455Z,34.80
2018-03-16T07:53:46.070Z,32.53
2018-03-16T07:56:12.696Z,30.70
2018-03-16T07:58:39.290Z,31.42
2018-03-16T08:01:05.908Z,38.17
2018-03-16T08:03:32.503Z,34.60
2018-03-16T08:05:59.126Z,27.90
2018-03-16T08:08:25.749Z,30.17
2018-03-16T08:10:52.343Z,27.75
2018-03-16T08:13:18.955Z,27.55
2018-03-16T08:15:46.331Z,29.63
2018-03-16T08:18:12.936Z,26.25
2018-03-16T08:20:39.544Z,23.70
2018-03-16T08:23:06.163Z,29.80
2018-03-16T08:25:32.771Z,29.40
2018-03-16T08:27:59.389Z,27.80
2018-03-16T08:30:25.968Z,29.75
2018-03-16T08:32:52.578Z,27.62
2018-03-16T08:35:19.187Z,28.90
2018-03-16T08:37:45.786Z,31.35
2018-03-16T08:40:12.391Z,30.92
2018-03-16T08:42:39.002Z,26.90
2018-03-16T08:45:05.609Z,27.58
2018-03-16T08:47:32.204Z,29.15
2018-03-16T08:49:58.814Z,26.52
2018-03-16T08:52:25.431Z,27.90
2018-03-16T08:54:52.030Z,31.12
2018-03-16T08:57:18.623Z,22.80
2018-03-16T08:59:45.229Z,24.67
2018-03-16T09:02:11.822Z,29.83
2018-03-16T09:04:38.463Z,30.40
2018-03-16T09:07:05.058Z,30.08
2018-03-16T09:09:31.687Z,31.87
2018-03-16T09:11:58.285Z,27.95
2018-03-16T09:14:24.895Z,31.10
2018-03-16T09:16:51.492Z,29.80
2018-03-16T09:19:18.112Z,34.15
2018-03-16T09:21:44.716Z,32.88
2018-03-16T09:24:11.322Z,35.60
2018-03-16T09:26:37.938Z,29.92
2018-03-16T09:29:04.539Z,34.85
2018-03-16T09:31:31.152Z,34.75
2018-03-16T09:33:57.760Z,36.08
2018-03-16T09:36:24.371Z,35.83
2018-03-16T09:38:50.962Z,35.13
2018-03-16T09:41:17.562Z,36.72
2018-03-16T09:43:44.163Z,33.75
2018-03-16T09:46:10.771Z,35.72
2018-03-16T09:48:37.367Z,35.45
2018-03-16T09:51:03.985Z,60.42
2018-03-16T09:53:30.572Z,72.82
2018-03-16T09:55:57.175Z,35.00
2018-03-16T09:58:23.774Z,38.67
2018-03-16T10:00:50.379Z,32.45
2018-03-16T10:03:16.978Z,31.73
2018-03-16T10:05:43.580Z,48.28
2018-03-16T10:08:10.201Z,37.15
2018-03-16T10:10:36.787Z,32.72
2018-03-16T10:13:03.387Z,32.65
2018-03-16T10:15:29.983Z,29.40
2018-03-16T10:17:56.603Z,24.52
2018-03-16T10:20:23.198Z,29.00
2018-03-16T10:22:49.807Z,25.55
2018-03-16T10:25:16.394Z,25.37
2018-03-16T10:27:43.007Z,27.70
2018-03-16T10:30:09.598Z,24.25
2018-03-16T10:32:36.219Z,27.95
2018-03-16T10:35:02.807Z,24.42
2018-03-16T10:37:29.431Z,27.90
2018-03-16T10:39:56.051Z,29.23
2018-03-16T10:42:22.663Z,28.70
2018-03-16T10:44:49.269Z,28.08
2018-03-16T10:47:15.896Z,28.90
2018-03-16T10:49:42.486Z,29.15
2018-03-16T10:52:09.151Z,27.95
2018-03-16T10:54:35.786Z,32.13
2018-03-16T10:57:02.391Z,29.33
2018-03-16T10:59:28.955Z,28.33
2018-03-16T11:01:55.588Z,28.12
2018-03-16T11:04:27.778Z,29.27
2018-03-16T11:07:00.027Z,29.35
2018-03-16T11:09:26.655Z,36.08
2018-03-16T11:11:53.263Z,29.80
2018-03-16T11:14:19.885Z,30.73
2018-03-16T11:16:46.466Z,33.10
2018-03-16T11:19:13.089Z,27.60
2018-03-16T11:21:39.692Z,27.95
2018-03-16T11:24:06.288Z,27.02
2018-03-16T11:26:32.887Z,29.10
2018-03-16T11:28:59.522Z,27.05
2018-03-16T11:31:26.115Z,28.20
2018-03-16T11:33:52.725Z,27.23
2018-03-16T11:36:19.330Z,24.20
2018-03-16T11:38:45.944Z,27.30
2018-03-16T11:41:12.534Z,27.58
2018-03-16T11:43:39.164Z,28.02
2018-03-16T11:46:05.763Z,27.98
2018-03-16T11:48:32.399Z,27.17
2018-03-16T11:50:59.019Z,28.85
2018-03-16T11:53:25.611Z,27.27
2018-03-16T11:55:52.207Z,25.25
2018-03-16T11:58:18.802Z,24.08
2018-03-16T12:00:45.402Z,25.00
2018-03-16T12:03:12.005Z,22.45
2018-03-16T12:05:38.599Z,24.65
2018-03-16T12:08:05.229Z,22.60
2018-03-16T12:10:31.834Z,22.17
2018-03-16T12:12:58.431Z,22.87
2018-03-16T12:15:25.046Z,26.70
2018-03-16T12:17:51.658Z,23.17
2018-03-16T12:20:18.270Z,21.70
2018-03-16T12:22:44.863Z,28.90
2018-03-16T12:25:11.462Z,25.27
2018-03-16T12:27:38.062Z,22.42
2018-03-16T12:30:04.663Z,21.62
2018-03-16T12:32:31.257Z,22.05
2018-03-16T12:34:57.869Z,19.40
2018-03-16T12:37:24.467Z,22.00
2018-03-16T12:39:51.075Z,20.08
2018-03-16T12:42:17.663Z,19.95
2018-03-16T12:44:44.276Z,18.45
2018-03-16T12:47:10.912Z,18.95
2018-03-16T12:49:37.498Z,17.92
2018-03-16T12:52:04.094Z,17.90
2018-03-16T12:54:30.699Z,20.00
2018-03-16T12:56:57.290Z,18.42
2018-03-16T12:59:23.883Z,19.00
2018-03-16T13:01:50.488Z,19.62
2018-03-16T13:04:17.081Z,20.50
2018-03-16T13:06:43.690Z,17.20
2018-03-16T13:09:10.287Z,18.30
2018-03-16T13:11:36.887Z,17.02
2018-03-16T13:14:03.502Z,20.15
2018-03-16T13:16:30.100Z,21.42
2018-03-16T13:18:56.687Z,20.52
2018-03-16T13:21:23.331Z,20.75
2018-03-16T13:23:49.939Z,21.02
2018-03-16T13:26:16.537Z,18.83
2018-03-16T13:28:43.139Z,20.92
2018-03-16T13:31:09.732Z,20.60
2018-03-16T13:33:36.328Z,19.98
2018-03-16T13:36:02.921Z,19.23
2018-03-16T13:38:29.534Z,22.85
2018-03-16T13:40:56.131Z,19.62
2018-03-16T13:43:22.772Z,18.52
2018-03-16T13:45:49.358Z,16.45
2018-03-16T13:48:15.955Z,18.92
2018-03-16T13:50:42.566Z,18.90
2018-03-16T13:53:09.186Z,21.70
2018-03-16T13:55:35.807Z,20.77
2018-03-16T13:58:02.416Z,21.20
2018-03-16T14:00:29.018Z,24.15
2018-03-16T14:02:55.626Z,21.48
2018-03-16T14:05:22.218Z,18.40
2018-03-16T14:07:48.837Z,20.67
2018-03-16T14:10:15.464Z,21.02
2018-03-16T14:12:42.035Z,20.33
2018-03-16T14:15:08.638Z,20.08
2018-03-16T14:17:35.226Z,17.40
2018-03-16T14:20:01.819Z,20.48
2018-03-16T14:22:29.728Z,22.23
2018-03-16T14:24:56.408Z,23.25
2018-03-16T14:27:23.011Z,19.87
2018-03-16T14:29:49.606Z,20.73
2018-03-16T14:32:16.203Z,22.77
2018-03-16T14:34:42.800Z,21.25
2018-03-16T14:37:09.399Z,22.23
2018-03-16T14:39:35.996Z,22.10
2018-03-16T14:42:02.602Z,24.85
2018-03-16T14:44:29.197Z,23.75
2018-03-16T14:47:02.365Z,21.23
2018-03-16T14:49:29.303Z,23.17
2018-03-16T14:51:58.413Z,18.55
2018-03-16T14:54:25.179Z,23.23
2018-03-16T14:56:51.782Z,21.05
2018-03-16T14:59:18.383Z,20.37
2018-03-16T15:01:45.041Z,22.60
2018-03-16T15:04:11.633Z,21.67
2018-03-16T15:06:38.258Z,21.67
2018-03-16T15:09:04.915Z,18.60
2018-03-16T15:11:31.498Z,21.42
2018-03-16T15:13:58.110Z,19.15
2018-03-16T15:16:24.752Z,23.15
2018-03-16T15:18:51.346Z,20.12
2018-03-16T15:21:17.954Z,20.73
2018-03-16T15:23:44.598Z,20.83
2018-03-16T15:26:11.207Z,20.60
2018-03-16T15:28:37.815Z,21.98
2018-03-16T15:31:04.414Z,19.25
2018-03-16T15:33:31.020Z,22.50
2018-03-16T15:35:57.662Z,20.70
2018-03-16T15:38:24.226Z,20.45
2018-03-16T15:40:50.831Z,23.15
2018-03-16T15:43:17.434Z,22.23
2018-03-16T15:45:44.062Z,19.35
2018-03-16T15:48:10.734Z,22.75
2018-03-16T15:50:37.341Z,20.48
2018-03-16T15:53:03.939Z,21.10
2018-03-16T15:55:30.607Z,19.60
2018-03-16T15:57:57.223Z,18.87
2018-03-16T16:00:23.866Z,15.75
2018-03-16T16:02:50.492Z,13.13
2018-03-16T16:05:17.273Z,13.60
2018-03-16T16:07:43.887Z,15.35
2018-03-16T16:10:10.549Z,13.85
2018-03-16T16:12:37.166Z,14.85
2018-03-16T16:15:03.823Z,15.63
2018-03-16T16:17:30.370Z,16.27
2018-03-16T16:19:57.010Z,12.20
2018-03-16T16:22:23.635Z,13.32
2018-03-16T16:24:50.270Z,12.48
2018-03-16T16:27:16.903Z,14.73
2018-03-16T16:29:43.498Z,9.18
2018-03-16T16:32:10.113Z,10.85
2018-03-16T16:34:36.711Z,11.57
2018-03-16T16:37:03.323Z,12.27
2018-03-16T16:39:29.954Z,12.35
2018-03-16T16:41:56.547Z,11.18
2018-03-16T16:44:23.796Z,12.60
2018-03-16T16:46:50.416Z,10.73
2018-03-16T16:49:17.060Z,12.20
2018-03-16T16:51:43.653Z,9.27
2018-03-16T16:54:10.251Z,12.32
2018-03-16T16:56:36.859Z,10.43
2018-03-16T16:59:03.642Z,9.10
2018-03-16T17:01:30.239Z,10.88
2018-03-16T17:03:56.820Z,9.68
2018-03-16T17:06:23.414Z,8.27
2018-03-16T17:08:50.067Z,9.23
2018-03-16T17:11:16.666Z,10.10
2018-03-16T17:13:43.298Z,12.52
2018-03-16T17:16:09.886Z,12.30
2018-03-16T17:18:36.523Z,10.18
2018-03-16T17:21:03.159Z,10.20
2018-03-16T17:23:29.763Z,9.65
2018-03-16T17:25:56.374Z,10.95
2018-03-16T17:28:22.961Z,8.90
2018-03-16T17:30:49.561Z,7.30
2018-03-16T17:33:16.175Z,11.75
2018-03-16T17:35:42.796Z,9.15
2018-03-16T17:38:09.565Z,8.77
2018-03-16T17:40:36.160Z,8.75
2018-03-16T17:43:02.766Z,8.40
2018-03-16T17:45:29.410Z,9.75
2018-03-16T17:47:56.008Z,8.35
2018-03-16T17:50:22.603Z,9.68
2018-03-16T17:52:49.228Z,9.95
2018-03-16T17:55:15.842Z,9.98
2018-03-16T17:57:42.450Z,11.65
2018-03-16T18:00:09.046Z,9.82
2018-03-16T18:02:35.655Z,9.18
2018-03-16T18:05:02.249Z,8.32
2018-03-16T18:07:28.847Z,11.57
2018-03-16T18:09:55.475Z,9.52
2018-03-16T18:12:22.104Z,8.93
2018-03-16T18:14:48.701Z,8.98
2018-03-16T18:17:15.331Z,7.57
2018-03-16T18:19:41.939Z,8.43
2018-03-16T18:22:08.546Z,6.93
2018-03-16T18:24:35.139Z,7.62
2018-03-16T18:27:01.750Z,8.50
2018-03-16T18:29:28.351Z,8.90
2018-03-16T18:31:54.954Z,8.40
2018-03-16T18:34:21.567Z,7.05
2018-03-16T18:36:48.167Z,8.93
2018-03-16T18:39:14.807Z,10.05
2018-03-16T18:41:41.423Z,8.75
2018-03-16T18:44:08.032Z,7.43
2018-03-16T18:46:34.631Z,10.85
2018-03-16T18:49:01.399Z,8.43
2018-03-16T18:51:28.033Z,8.18
2018-03-16T18:53:54.627Z,7.50
2018-03-16T18:56:21.229Z,9.57
2018-03-16T18:58:47.860Z,7.87
2018-03-16T19:01:14.434Z,8.23
2018-03-16T19:03:41.051Z,7.07
2018-03-16T19:06:07.659Z,9.07
2018-03-16T19:08:34.331Z,8.98
2018-03-16T19:11:00.912Z,8.23
2018-03-16T19:13:27.503Z,9.68
2018-03-16T19:15:54.168Z,9.68
2018-03-16T19:18:20.764Z,15.05
2018-03-16T19:20:47.370Z,9.13
2018-03-16T19:23:13.980Z,9.20
2018-03-16T19:25:40.566Z,9.95
2018-03-16T19:28:07.160Z,8.40
2018-03-16T19:30:33.750Z,10.18
2018-03-16T19:33:00.334Z,9.13
2018-03-16T19:35:26.980Z,12.57
2018-03-16T19:37:53.602Z,8.20
2018-03-16T19:40:20.168Z,7.85
2018-03-16T19:42:46.823Z,10.52
2018-03-16T19:45:13.447Z,12.23
2018-03-16T19:47:40.062Z,9.23
2018-03-16T19:50:06.715Z,9.73
2018-03-16T19:52:33.323Z,9.27
2018-03-16T19:54:59.924Z,7.15
2018-03-16T19:57:26.518Z,7.70
2018-03-16T19:59:53.129Z,10.85
2018-03-16T20:02:19.733Z,9.35
2018-03-16T20:04:46.323Z,8.80
2018-03-16T20:07:12.983Z,8.88
2018-03-16T20:09:39.588Z,8.23
2018-03-16T20:12:06.223Z,9.93
2018-03-16T20:14:32.822Z,7.10
2018-03-16T20:16:59.477Z,11.95
2018-03-16T20:19:26.119Z,10.48
2018-03-16T20:21:52.729Z,8.75
2018-03-16T20:24:19.321Z,8.40
2018-03-16T20:26:45.915Z,9.25
2018-03-16T20:29:12.539Z,12.52
2018-03-16T20:31:39.191Z,9.02
2018-03-16T20:34:05.818Z,10.98
2018-03-16T20:36:32.401Z,8.70
2018-03-16T20:38:59.029Z,10.07
2018-03-16T20:41:25.686Z,9.50
2018-03-16T20:43:52.266Z,9.68
2018-03-16T20:46:18.898Z,9.85
2018-03-16T20:48:45.502Z,6.70
2018-03-16T20:51:12.114Z,8.60
2018-03-16T20:53:38.733Z,11.70
2018-03-16T20:56:05.318Z,12.25
2018-03-16T20:58:31.947Z,10.40
2018-03-16T21:00:58.535Z,9.38
2018-03-16T21:03:25.129Z,8.98
2018-03-16T21:05:51.718Z,7.85
2018-03-16T21:08:18.307Z,8.43
2018-03-16T21:10:44.906Z,7.35
2018-03-16T21:13:11.512Z,10.40
2018-03-16T21:15:38.103Z,8.68
2018-03-16T21:18:04.707Z,6.53
2018-03-16T21:20:31.321Z,8.07
2018-03-16T21:22:57.922Z,5.12
2018-03-16T21:25:24.511Z,6.78
2018-03-16T21:27:51.115Z,9.00
2018-03-16T21:30:17.695Z,9.60
2018-03-16T21:32:44.296Z,12.15
2018-03-16T21:35:10.882Z,6.25
2018-03-16T21:37:37.470Z,8.35
2018-03-16T21:40:04.165Z,7.70
2018-03-16T21:42:30.736Z,7.10
2018-03-16T21:44:57.348Z,12.15
2018-03-16T21:47:23.938Z,9.57
2018-03-16T21:49:50.543Z,6.47
2018-03-16T21:52:17.123Z,7.60
2018-03-16T21:54:43.721Z,10.45
2018-03-16T21:57:10.314Z,9.18
2018-03-16T21:59:36.897Z,9.80
2018-03-16T22:02:03.494Z,8.02
2018-03-16T22:04:30.082Z,9.05
2018-03-16T22:06:56.672Z,5.45
2018-03-16T22:09:23.285Z,6.25
2018-03-16T22:11:49.868Z,4.90
2018-03-16T22:14:16.454Z,6.40
2018-03-16T22:16:43.069Z,6.70
2018-03-16T22:19:09.654Z,5.40
2018-03-16T22:21:36.254Z,6.25
2018-03-16T22:24:02.854Z,6.45
2018-03-16T22:26:29.448Z,7.03
2018-03-16T22:28:56.064Z,6.35
2018-03-16T22:31:22.684Z,6.47
2018-03-16T22:33:49.279Z,8.88
2018-03-16T22:36:15.870Z,9.15
2018-03-16T22:38:42.471Z,5.62
2018-03-16T22:41:09.075Z,6.22
2018-03-16T22:43:36.487Z,6.15
2018-03-16T22:46:03.106Z,6.30
2018-03-16T22:48:29.694Z,5.20
2018-03-16T22:50:56.291Z,8.00
2018-03-16T22:53:22.895Z,11.02
2018-03-16T22:55:49.479Z,9.55
2018-03-16T22:58:16.078Z,6.60
2018-03-16T23:00:42.672Z,15.75
2018-03-16T23:03:09.273Z,6.45
2018-03-16T23:05:35.983Z,5.28
2018-03-16T23:08:02.567Z,7.10
2018-03-16T23:10:29.163Z,6.80
2018-03-16T23:12:55.760Z,6.12
2018-03-16T23:15:22.347Z,5.32
2018-03-16T23:17:48.931Z,5.65
2018-03-16T23:20:15.575Z,4.87
2018-03-16T23:22:42.167Z,7.32
2018-03-16T23:25:08.792Z,4.75
2018-03-16T23:27:35.376Z,9.15
2018-03-16T23:30:01.967Z,5.85
2018-03-16T23:32:28.550Z,8.57
2018-03-16T23:34:55.169Z,5.85
2018-03-16T23:37:21.786Z,7.53
2018-03-16T23:39:48.387Z,6.25
2018-03-16T23:42:14.982Z,7.70
2018-03-16T23:44:41.575Z,6.35
2018-03-16T23:47:08.158Z,6.20
2018-03-16T23:49:34.750Z,7.37
2018-03-16T23:52:01.335Z,5.72
2018-03-16T23:54:27.936Z,5.55
2018-03-16T23:56:54.527Z,7.20
2018-03-16T23:59:21.124Z,6.00
